EDF weather

Elmendorf Air Force Base
Anchorage, Alaska, United States

Public forecast

Using degrees Fahrenheit for public forecast. Weather courtesy of forecast.io.

Current aviation weather report (METAR) for Elmendorf Air Force Base

Retrieved 2020/01/25 15:56 UTC (50 minutes ago):

PAED 251556Z AUTO 05005KT 10SM CLR M22/M25 A2951

Aviation forecast (TAF) for Elmendorf Air Force Base

Retrieved 2020/01/25 11:06 UTC (6 hours ago):

TAF PAED 251100Z 2511/2617 VRB06KT 9999 SKC QNH2943INS TXM18/2523Z TNM28/2610Z